Time;durP1;ratioP1;P1;durP2;ratioP2;P2;SDS_P1;SDS_P2;PMS_P1;PMS_P2;Temp;Humidity;BMP_temperature;BMP_pressure;BME280_temperature;BME280_humidity;BME280_pressure;Samples;Min_cycle;Max_cycle;Signal;HPM_P1;HPM_P2
2022/08/20 00:01:57;;;;;;;10.85;9.70;;;;;;;27.16;63.46;98921.66;5071101;28;20283;-57
2022/08/20 00:04:24;;;;;;;11.05;9.95;;;;;;;27.16;63.98;98919.00;5071310;28;20199;-59
2022/08/20 00:06:51;;;;;;;12.70;9.65;;;;;;;27.16;64.14;98921.66;5071103;28;20200;-57
2022/08/20 00:09:18;;;;;;;11.93;9.43;;;;;;;27.25;63.82;98921.50;5071004;28;20299;-57
2022/08/20 00:11:46;;;;;;;10.65;9.55;;;;;;;27.25;63.33;98918.84;5070962;28;20211;-56
2022/08/20 00:14:13;;;;;;;15.13;10.18;;;;;;;27.22;63.58;98919.16;5071143;28;20733;-59
2022/08/20 00:16:41;;;;;;;12.30;9.82;;;;;;;27.17;63.39;98913.53;5069919;28;20674;-59
2022/08/20 00:19:09;;;;;;;11.05;9.75;;;;;;;27.11;63.56;98904.34;5071266;28;20642;-59
2022/08/20 00:21:37;;;;;;;14.75;10.70;;;;;;;27.24;63.26;98911.00;5070716;28;20200;-57
2022/08/20 00:24:05;;;;;;;12.88;9.98;;;;;;;27.20;63.25;98897.19;5070856;28;20220;-57
2022/08/20 00:26:32;;;;;;;14.95;10.38;;;;;;;27.25;63.46;98905.53;5070861;28;20610;-59
2022/08/20 00:29:01;;;;;;;11.32;10.00;;;;;;;27.18;63.99;98917.84;5070984;28;20195;-58
2022/08/20 00:31:28;;;;;;;11.32;10.15;;;;;;;27.11;63.92;98904.34;5070689;28;20200;-58
2022/08/20 00:33:55;;;;;;;13.73;10.60;;;;;;;27.14;63.82;98916.50;5070551;28;20282;-58
2022/08/20 00:36:22;;;;;;;10.75;9.73;;;;;;;27.15;64.57;98912.84;5070653;28;20691;-58
2022/08/20 00:38:49;;;;;;;11.80;10.35;;;;;;;27.08;64.81;98907.34;5070471;28;20681;-57
2022/08/20 00:41:20;;;;;;;10.38;9.45;;;;;;;27.07;64.91;98905.69;5070464;28;20282;-57
2022/08/20 00:43:49;;;;;;;12.77;11.00;;;;;;;27.08;65.24;98902.03;5070429;28;20220;-57
2022/08/20 00:46:20;;;;;;;13.32;11.20;;;;;;;26.95;66.13;98906.97;5070194;28;20203;-57
2022/08/20 00:48:50;;;;;;;13.07;11.88;;;;;;;27.00;66.30;98898.50;5070241;28;20298;-57
2022/08/20 00:51:26;;;;;;;14.80;11.40;;;;;;;26.79;67.11;98884.75;5070517;28;20200;-57
2022/08/20 00:53:54;;;;;;;12.57;11.05;;;;;;;26.94;67.34;98909.81;5070136;28;20196;-59
2022/08/20 00:56:22;;;;;;;12.68;11.52;;;;;;;26.91;67.81;98902.94;5070402;28;20648;-59
2022/08/20 00:58:52;;;;;;;17.35;11.00;;;;;;;26.88;68.42;98908.59;5069937;28;20286;-58
2022/08/20 01:01:22;;;;;;;16.42;11.35;;;;;;;26.73;69.29;98897.75;5069999;28;20601;-58
2022/08/20 01:03:54;;;;;;;13.57;10.88;;;;;;;26.65;70.17;98905.69;5070138;28;20441;-58
2022/08/20 01:06:21;;;;;;;12.77;11.52;;;;;;;26.58;70.86;98901.16;5069912;28;20209;-57
2022/08/20 01:08:48;;;;;;;15.55;11.13;;;;;;;26.61;68.94;98904.34;5069803;28;20204;-56
2022/08/20 01:11:15;;;;;;;17.90;11.07;;;;;;;26.55;68.07;98899.66;5069994;28;20192;-58
2022/08/20 01:13:45;;;;;;;11.75;10.68;;;;;;;26.49;68.65;98900.31;5069715;28;20191;-58
2022/08/20 01:16:19;;;;;;;11.82;10.75;;;;;;;26.32;68.42;98882.59;5070014;28;20587;-57
2022/08/20 01:18:49;;;;;;;11.40;10.48;;;;;;;26.21;69.45;98898.78;5069669;28;20195;-57
2022/08/20 01:21:21;;;;;;;13.43;11.73;;;;;;;26.15;70.07;98888.81;5069824;28;20196;-57
2022/08/20 01:23:56;;;;;;;12.50;11.40;;;;;;;26.26;70.52;98885.88;5069740;28;20238;-57
2022/08/20 01:26:28;;;;;;;13.20;12.05;;;;;;;26.27;71.20;98885.75;5069428;28;20208;-57
2022/08/20 01:28:58;;;;;;;18.52;12.30;;;;;;;26.31;71.53;98888.91;5069777;28;20596;-56
2022/08/20 01:31:30;;;;;;;14.20;12.70;;;;;;;26.20;72.37;98884.66;5069599;28;20195;-57
2022/08/20 01:33:59;;;;;;;15.05;12.10;;;;;;;26.14;73.53;98884.47;5069438;28;20314;-57
2022/08/20 01:36:31;;;;;;;13.45;12.35;;;;;;;26.15;73.61;98886.13;5069702;28;20715;-58
2022/08/20 01:38:59;;;;;;;17.60;12.50;;;;;;;26.16;74.08;98880.66;5069949;28;20651;-58
2022/08/20 01:41:58;;;;;;;15.00;12.25;;;;;;;26.18;74.25;98885.84;5069768;28;20721;-59
2022/08/20 01:44:25;;;;;;;14.07;12.77;;;;;;;26.08;75.07;98885.91;5054118;28;20720;-60
2022/08/20 01:46:54;;;;;;;14.23;12.57;;;;;;;26.06;75.42;98877.28;5069868;28;20253;-60
2022/08/20 01:49:25;;;;;;;14.70;13.00;;;;;;;25.98;76.23;98878.06;5068955;28;20225;-59
2022/08/20 01:51:54;;;;;;;14.60;13.20;;;;;;;25.95;76.48;98872.25;5069703;28;20219;-59
2022/08/20 01:54:22;;;;;;;14.60;12.68;;;;;;;25.94;76.84;98883.88;5069849;28;20200;-59
2022/08/20 01:57:00;;;;;;;16.88;12.63;;;;;;;25.92;77.26;98880.53;5069255;28;20199;-59
2022/08/20 01:59:27;;;;;;;14.27;12.57;;;;;;;25.96;77.06;98882.69;5069544;28;20253;-60
2022/08/20 02:01:55;;;;;;;13.20;11.98;;;;;;;25.95;76.91;98885.53;5069377;28;20202;-57
2022/08/20 02:04:22;;;;;;;15.65;12.80;;;;;;;25.88;77.48;98895.13;5069286;28;20716;-57
2022/08/20 02:06:53;;;;;;;14.38;12.73;;;;;;;25.82;77.69;98895.75;5069433;28;20646;-57
2022/08/20 02:09:20;;;;;;;14.30;12.57;;;;;;;25.74;77.63;98893.84;5069288;28;20199;-57
2022/08/20 02:11:47;;;;;;;14.98;13.38;;;;;;;25.79;77.40;98896.88;5069219;28;20196;-57
2022/08/20 02:14:16;;;;;;;16.77;12.75;;;;;;;25.79;77.21;98896.06;5069199;28;20196;-57
2022/08/20 02:16:46;;;;;;;14.52;13.10;;;;;;;25.71;77.06;98875.56;5069297;28;20283;-60
2022/08/20 02:19:16;;;;;;;14.38;12.75;;;;;;;25.84;76.50;98893.78;5069354;28;20215;-60
2022/08/20 02:21:49;;;;;;;14.13;12.80;;;;;;;25.79;76.37;98902.22;5069207;28;20198;-60
2022/08/20 02:24:16;;;;;;;14.32;12.93;;;;;;;25.80;76.33;98900.38;5069196;28;20315;-60
2022/08/20 02:26:43;;;;;;;14.20;12.65;;;;;;;25.70;76.80;98897.81;5069136;28;20265;-60
2022/08/20 02:29:13;;;;;;;14.70;13.07;;;;;;;25.57;77.61;98898.19;5069529;28;20203;-60
2022/08/20 02:31:44;;;;;;;14.88;13.48;;;;;;;25.57;77.75;98892.03;5069239;28;20648;-59
2022/08/20 02:34:12;;;;;;;17.25;14.18;;;;;;;25.68;76.95;98887.34;5068899;28;20228;-59
2022/08/20 02:36:41;;;;;;;13.68;12.40;;;;;;;25.73;75.91;98894.03;5068967;28;20210;-59
2022/08/20 02:39:10;;;;;;;14.35;12.95;;;;;;;25.77;75.09;98882.06;5068765;28;20295;-60
2022/08/20 02:41:38;;;;;;;14.07;12.05;;;;;;;25.71;75.41;98894.19;5069302;28;20732;-59
2022/08/20 02:44:07;;;;;;;14.70;12.52;;;;;;;25.60;74.58;98892.59;5069448;28;20756;-59
2022/08/20 02:46:35;;;;;;;15.25;11.43;;;;;;;25.54;72.54;98879.06;5069180;28;20655;-59
2022/08/20 02:49:03;;;;;;;27.83;11.48;;;;;;;25.47;72.91;98886.81;5069149;28;20199;-59
2022/08/20 02:51:30;;;;;;;12.18;11.13;;;;;;;25.50;71.99;98891.00;5068841;28;20287;-59
2022/08/20 02:53:57;;;;;;;11.85;10.77;;;;;;;25.50;71.03;98886.53;5068780;28;20192;-59
2022/08/20 02:56:24;;;;;;;11.23;10.35;;;;;;;25.43;70.71;98892.59;5069046;28;20655;-58
2022/08/20 02:58:51;;;;;;;12.32;11.35;;;;;;;25.40;70.71;98887.56;5068723;28;20227;-58
2022/08/20 03:01:19;;;;;;;11.63;10.82;;;;;;;25.35;70.88;98884.56;5069582;28;20200;-57
2022/08/20 03:03:46;;;;;;;16.80;11.43;;;;;;;25.26;71.13;98886.31;5072070;28;20219;-57
2022/08/20 03:06:15;;;;;;;11.18;10.13;;;;;;;25.29;70.21;98884.16;5072215;28;20206;-57
2022/08/20 03:08:42;;;;;;;12.35;11.05;;;;;;;25.29;70.06;98884.16;5072339;28;20278;-57
2022/08/20 03:11:09;;;;;;;12.50;11.50;;;;;;;25.19;70.63;98883.41;5072490;28;20689;-57
2022/08/20 03:13:37;;;;;;;14.55;11.80;;;;;;;25.15;70.84;98876.75;5072359;28;20646;-57
2022/08/20 03:16:04;;;;;;;12.45;11.02;;;;;;;25.10;70.69;98881.66;5072412;28;20192;-57
2022/08/20 03:18:34;;;;;;;12.80;11.38;;;;;;;25.06;71.06;98885.59;5071896;28;20219;-56
2022/08/20 03:21:02;;;;;;;12.23;10.95;;;;;;;25.05;70.98;98877.81;5071901;28;20196;-56
2022/08/20 03:23:30;;;;;;;12.07;11.13;;;;;;;25.10;70.85;98878.19;5071867;28;20315;-57
2022/08/20 03:25:58;;;;;;;13.27;11.98;;;;;;;25.18;70.25;98875.59;5071919;28;20200;-56
2022/08/20 03:28:26;;;;;;;12.68;11.48;;;;;;;25.10;70.48;98878.19;5071847;28;20206;-57
2022/08/20 03:30:55;;;;;;;14.15;11.82;;;;;;;24.94;70.62;98860.28;5071897;28;20280;-58
2022/08/20 03:33:22;;;;;;;13.82;12.52;;;;;;;24.99;71.04;98891.69;5071464;28;20275;-56
2022/08/20 03:35:50;;;;;;;14.40;13.02;;;;;;;24.93;71.22;98885.16;5071547;28;20278;-56
2022/08/20 03:38:20;;;;;;;13.60;12.25;;;;;;;24.89;71.53;98886.41;5071861;28;20192;-56
2022/08/20 03:40:48;;;;;;;15.30;13.70;;;;;;;24.94;71.85;98890.28;5071507;28;20283;-56
2022/08/20 03:43:15;;;;;;;14.20;12.80;;;;;;;25.03;71.74;98893.91;5071662;28;20592;-56
2022/08/20 03:45:44;;;;;;;14.38;12.80;;;;;;;25.08;71.79;98891.59;5071474;28;20677;-56
2022/08/20 03:48:13;;;;;;;13.57;12.18;;;;;;;25.12;71.83;98887.66;5071867;28;20203;-56
2022/08/20 03:50:41;;;;;;;13.40;12.18;;;;;;;25.20;71.81;98889.56;5071560;28;20214;-55
2022/08/20 03:53:09;;;;;;;18.55;13.02;;;;;;;25.27;71.40;98895.94;5071618;28;20674;-56
2022/08/20 03:55:37;;;;;;;13.48;12.07;;;;;;;25.31;71.41;98895.47;5071201;28;20196;-65
2022/08/20 03:58:08;;;;;;;14.60;13.07;;;;;;;25.44;70.53;98903.06;5071059;28;20594;-55
2022/08/20 04:00:38;;;;;;;15.07;13.35;;;;;;;25.57;70.42;98894.69;5071206;28;20196;-55
2022/08/20 04:03:07;;;;;;;16.98;13.73;;;;;;;25.53;70.78;98891.50;5071374;28;20436;-55
2022/08/20 04:05:39;;;;;;;14.23;12.63;;;;;;;25.60;70.40;98889.09;5071290;28;20223;-55
2022/08/20 04:08:08;;;;;;;15.13;13.52;;;;;;;25.65;70.13;98889.47;5071195;28;20670;-55
2022/08/20 04:10:35;;;;;;;17.02;12.38;;;;;;;25.74;69.56;98895.66;5070884;28;20206;-55
2022/08/20 04:13:06;;;;;;;14.45;12.95;;;;;;;25.90;68.17;98893.97;5070365;28;20701;-56
2022/08/20 04:15:35;;;;;;;15.70;13.05;;;;;;;26.26;68.29;98883.22;5070958;28;20199;-56
2022/08/20 04:18:06;;;;;;;23.08;14.10;;;;;;;26.97;65.46;98893.50;5070953;28;20196;-57
2022/08/20 04:20:34;;;;;;;15.07;13.57;;;;;;;27.78;62.48;98901.56;5070571;28;20195;-56
2022/08/20 04:23:01;;;;;;;13.90;12.05;;;;;;;28.43;60.14;98898.78;5070708;28;20201;-58
2022/08/20 04:25:30;;;;;;;14.77;12.52;;;;;;;28.71;59.18;98908.00;5070285;28;20776;-58
2022/08/20 04:27:57;;;;;;;16.58;12.95;;;;;;;29.02;58.00;98916.03;5067025;28;20215;-56
2022/08/20 04:30:27;;;;;;;15.60;12.13;;;;;;;29.63;55.83;98924.16;5069374;28;20192;-59
2022/08/20 04:32:54;;;;;;;15.00;13.30;;;;;;;30.27;53.76;98922.72;5066791;28;20715;-58
2022/08/20 04:35:24;;;;;;;13.77;12.57;;;;;;;30.71;52.95;98917.38;5069127;28;20239;-58
2022/08/20 04:37:58;;;;;;;16.60;11.82;;;;;;;31.31;51.35;98926.94;5069455;28;20200;-58
2022/08/20 04:43:09;;;;;;;13.80;12.30;;;;;;;31.45;50.75;98927.91;5064716;28;20250;-58
2022/08/20 04:45:37;;;;;;;13.93;12.15;;;;;;;31.27;51.37;98926.47;5063115;28;20208;-60
2022/08/20 04:48:06;;;;;;;18.55;12.65;;;;;;;31.52;50.73;98929.63;5063767;28;20210;-60
2022/08/20 04:50:35;;;;;;;13.10;11.80;;;;;;;31.71;49.94;98925.50;5066323;28;20207;-60
2022/08/20 04:53:03;;;;;;;14.45;11.63;;;;;;;31.93;49.27;98928.97;5066423;28;20192;-60
2022/08/20 04:55:30;;;;;;;20.33;11.80;;;;;;;32.09;48.77;98925.97;5069372;28;20715;-60
2022/08/20 04:58:03;;;;;;;13.02;11.85;;;;;;;32.84;46.64;98935.97;5068197;28;20188;-59
2022/08/20 05:00:30;;;;;;;15.27;12.02;;;;;;;33.40;45.10;98941.13;5066208;28;20196;-59
2022/08/20 05:02:59;;;;;;;13.32;12.07;;;;;;;33.86;43.91;98942.00;5068644;28;20199;-60
2022/08/20 05:05:26;;;;;;;12.75;11.73;;;;;;;33.95;43.69;98939.13;5069254;28;20223;-59
2022/08/20 05:07:54;;;;;;;13.10;11.65;;;;;;;34.28;42.95;98934.53;5069904;28;20198;-59
2022/08/20 05:10:22;;;;;;;18.63;12.25;;;;;;;34.80;41.80;98935.44;5069882;28;20219;-58
2022/08/20 05:12:50;;;;;;;14.82;11.63;;;;;;;35.00;40.72;98935.34;5069231;28;20245;-57
2022/08/20 05:15:17;;;;;;;12.55;11.45;;;;;;;35.02;40.15;98938.66;5068864;28;20192;-56
2022/08/20 05:17:44;;;;;;;12.63;11.25;;;;;;;35.11;39.92;98934.66;5069217;28;20203;-56
2022/08/20 05:20:16;;;;;;;13.18;11.80;;;;;;;35.37;39.33;98933.72;5068940;28;20203;-56
2022/08/20 05:22:44;;;;;;;21.92;12.18;;;;;;;35.66;39.07;98933.94;5068758;28;20196;-56
2022/08/20 05:25:11;;;;;;;15.27;11.75;;;;;;;36.04;38.36;98938.41;5064429;28;20790;-56
2022/08/20 05:27:38;;;;;;;12.18;11.13;;;;;;;36.67;37.42;98940.91;5067558;28;20217;-56
2022/08/20 05:30:08;;;;;;;12.27;11.18;;;;;;;36.45;36.47;98940.53;5067430;28;20311;-56
2022/08/20 05:32:36;;;;;;;12.43;11.30;;;;;;;36.22;37.09;98946.59;5067549;28;20808;-57
2022/08/20 05:35:04;;;;;;;12.60;11.23;;;;;;;36.63;36.58;98945.09;5067310;28;20223;-57
2022/08/20 05:37:34;;;;;;;15.35;12.23;;;;;;;37.21;35.75;98942.72;5065029;28;20204;-57
2022/08/20 05:40:01;;;;;;;13.95;12.52;;;;;;;37.23;35.10;98931.69;5067870;28;20681;-58
2022/08/20 05:42:28;;;;;;;13.40;12.15;;;;;;;36.77;35.96;98940.38;5069225;28;20196;-57
2022/08/20 05:44:55;;;;;;;16.70;11.73;;;;;;;36.84;35.99;98951.94;5068655;28;20220;-57
2022/08/20 05:47:26;;;;;;;12.63;11.23;;;;;;;37.08;35.87;98941.00;5068681;28;20202;-57
2022/08/20 05:49:53;;;;;;;12.77;11.55;;;;;;;37.36;35.38;98947.75;5066156;28;20203;-57
2022/08/20 05:52:20;;;;;;;13.02;11.80;;;;;;;36.92;35.69;98944.31;5069529;28;20202;-58
2022/08/20 05:54:48;;;;;;;13.52;12.13;;;;;;;37.30;35.44;98946.75;5069357;28;20195;-57
2022/08/20 05:57:19;;;;;;;13.10;12.00;;;;;;;38.04;34.23;98948.09;5069788;28;20201;-57
2022/08/20 05:59:46;;;;;;;14.02;12.10;;;;;;;37.69;34.63;98939.97;5068337;28;20188;-59
2022/08/20 06:04:53;;;;;;;18.40;12.50;;;;;;;37.21;35.06;98931.91;5068689;28;20222;-60
2022/08/20 06:07:20;;;;;;;13.65;12.35;;;;;;;37.51;34.99;98940.00;5069170;28;20222;-61
2022/08/20 06:09:49;;;;;;;12.55;11.48;;;;;;;37.91;33.87;98942.09;5069455;28;20642;-60
2022/08/20 06:12:16;;;;;;;12.93;11.73;;;;;;;38.57;33.03;98938.22;5068612;28;20341;-60
2022/08/20 06:14:46;;;;;;;16.05;11.68;;;;;;;39.05;32.56;98932.44;5068154;28;20245;-61
2022/08/20 06:17:15;;;;;;;12.32;11.32;;;;;;;39.01;32.20;98940.25;5068418;28;20231;-57
2022/08/20 06:19:45;;;;;;;13.05;11.80;;;;;;;38.94;32.86;98936.81;5067881;28;20196;-58
2022/08/20 06:22:12;;;;;;;12.48;11.15;;;;;;;39.21;32.01;98937.09;5068329;28;20192;-57
2022/08/20 06:24:39;;;;;;;12.75;11.15;;;;;;;39.38;31.54;98927.09;5068888;28;20779;-59
2022/08/20 06:27:07;;;;;;;14.55;11.65;;;;;;;38.56;32.69;98928.44;5068820;28;20195;-58
2022/08/20 06:29:36;;;;;;;15.40;11.40;;;;;;;37.89;33.98;98933.38;5069146;28;20487;-58
2022/08/20 06:32:03;;;;;;;13.00;11.90;;;;;;;38.23;33.68;98937.19;5068635;28;20195;-58
2022/08/20 06:34:30;;;;;;;13.27;12.00;;;;;;;38.72;32.73;98928.50;5068862;28;20258;-58
2022/08/20 06:36:57;;;;;;;14.02;11.40;;;;;;;38.96;32.56;98928.41;5072695;28;20598;-59
2022/08/20 06:39:27;;;;;;;12.50;11.40;;;;;;;38.61;32.58;98904.94;5072793;28;20210;-58
2022/08/20 06:41:57;;;;;;;12.55;11.50;;;;;;;39.27;31.78;98927.16;5072732;28;20231;-58
2022/08/20 06:44:27;;;;;;;12.55;11.35;;;;;;;39.45;32.30;98927.78;5072811;28;20242;-58
2022/08/20 06:46:55;;;;;;;12.52;11.27;;;;;;;39.92;31.22;98930.22;5072623;28;20199;-58
2022/08/20 06:49:22;;;;;;;17.13;10.73;;;;;;;39.62;31.44;98937.84;5072972;28;20744;-58
2022/08/20 06:51:48;;;;;;;12.45;10.60;;;;;;;38.82;33.07;98928.72;5072558;28;20286;-59
2022/08/20 06:54:16;;;;;;;12.32;11.25;;;;;;;39.28;32.38;98921.44;5072850;28;20195;-60
2022/08/20 06:56:43;;;;;;;11.27;10.38;;;;;;;39.37;32.14;98925.44;5072523;28;20290;-60
2022/08/20 06:59:10;;;;;;;14.40;10.85;;;;;;;39.61;32.23;98919.91;5072525;28;20688;-61
2022/08/20 07:01:38;;;;;;;14.57;10.68;;;;;;;39.92;31.79;98933.75;5072194;28;20202;-61
2022/08/20 07:04:06;;;;;;;11.10;10.25;;;;;;;40.48;30.96;98936.47;5072287;28;20199;-58
2022/08/20 07:06:33;;;;;;;11.10;10.10;;;;;;;39.35;32.66;98929.47;5072324;28;20249;-60
2022/08/20 07:09:00;;;;;;;10.95;9.88;;;;;;;39.00;33.56;98922.31;5072445;28;20199;-57
2022/08/20 07:11:27;;;;;;;12.82;10.10;;;;;;;39.29;33.27;98922.28;5072175;28;20198;-58
2022/08/20 07:13:55;;;;;;;12.23;9.65;;;;;;;38.73;34.09;98930.16;5072294;28;20199;-58
2022/08/20 07:16:22;;;;;;;11.85;10.68;;;;;;;38.89;33.55;98916.91;5072038;28;20196;-58
2022/08/20 07:18:50;;;;;;;11.90;10.80;;;;;;;39.37;32.43;98919.19;5072344;28;20205;-57
2022/08/20 07:21:17;;;;;;;12.95;11.32;;;;;;;39.12;33.09;98914.13;5072041;28;20203;-58
2022/08/20 07:23:44;;;;;;;11.38;10.52;;;;;;;39.41;32.40;98910.31;5071885;28;20201;-58
2022/08/20 07:26:12;;;;;;;11.00;9.82;;;;;;;39.81;31.82;98917.50;5071862;28;20227;-58
2022/08/20 07:28:38;;;;;;;10.63;9.73;;;;;;;40.79;30.67;98910.50;5071708;28;20669;-58
2022/08/20 07:33:51;;;;;;;11.88;10.75;;;;;;;40.18;31.43;98915.09;5071784;28;20608;-58
2022/08/20 07:36:19;;;;;;;13.57;12.00;;;;;;;40.74;30.41;98908.56;5071856;28;20191;-58
2022/08/20 07:38:47;;;;;;;11.63;10.63;;;;;;;40.75;30.02;98906.66;5071630;28;20207;-57
2022/08/20 07:41:14;;;;;;;11.48;9.93;;;;;;;41.14;29.62;98908.19;5071437;28;20665;-58
2022/08/20 07:43:44;;;;;;;12.00;10.88;;;;;;;41.59;29.35;98913.25;5071775;28;20634;-60
2022/08/20 07:46:12;;;;;;;10.60;9.90;;;;;;;41.64;29.17;98907.84;5071401;28;20288;-60
2022/08/20 07:48:45;;;;;;;15.85;10.95;;;;;;;42.22;29.21;98906.06;5070719;28;20202;-61
2022/08/20 07:51:16;;;;;;;11.93;10.80;;;;;;;42.00;28.83;98911.66;5071438;28;20210;-61
2022/08/20 07:53:44;;;;;;;13.48;12.18;;;;;;;41.92;28.64;98903.13;5071384;28;20753;-61
2022/08/20 07:56:13;;;;;;;11.18;10.25;;;;;;;42.31;28.13;98896.31;5071617;28;20669;-61
2022/08/20 07:58:46;;;;;;;19.08;10.98;;;;;;;41.60;28.80;98895.81;5071305;28;20207;-61
2022/08/20 08:01:13;;;;;;;12.05;10.40;;;;;;;41.41;29.08;98896.44;5071227;28;20290;-61
2022/08/20 08:03:40;;;;;;;11.60;10.73;;;;;;;41.48;29.27;98888.88;5071106;28;20210;-61
2022/08/20 08:06:08;;;;;;;11.10;10.05;;;;;;;40.82;29.92;98874.59;5071157;28;20603;-60
2022/08/20 08:08:38;;;;;;;12.82;10.38;;;;;;;41.45;29.52;98887.47;5071573;28;20245;-61
2022/08/20 08:11:06;;;;;;;13.02;10.75;;;;;;;41.62;29.26;98880.03;5071096;28;20306;-61
2022/08/20 08:13:38;;;;;;;12.30;10.18;;;;;;;41.82;28.91;98882.09;5070961;28;20207;-61
2022/08/20 08:16:06;;;;;;;13.65;10.95;;;;;;;42.03;28.51;98881.16;5070925;28;20195;-61
2022/08/20 08:18:36;;;;;;;11.93;10.70;;;;;;;42.31;28.69;98874.50;5070980;28;20191;-61
2022/08/20 08:21:05;;;;;;;12.57;10.27;;;;;;;41.71;29.08;98868.66;5070860;28;20195;-61
2022/08/20 08:23:33;;;;;;;12.00;10.90;;;;;;;42.36;28.48;98863.63;5071057;28;20290;-61
2022/08/20 08:26:02;;;;;;;12.07;10.85;;;;;;;42.58;28.73;98868.06;5070898;28;20674;-61
2022/08/20 08:28:29;;;;;;;14.85;10.95;;;;;;;42.54;28.61;98862.34;5070961;28;20263;-57
2022/08/20 08:30:56;;;;;;;13.30;10.52;;;;;;;42.39;28.08;98854.91;5070754;28;20695;-58
2022/08/20 08:33:29;;;;;;;12.25;11.07;;;;;;;42.16;28.50;98849.88;5070757;28;20693;-59
2022/08/20 08:35:59;;;;;;;11.75;10.75;;;;;;;41.98;28.92;98839.41;5070085;28;20301;-60
2022/08/20 08:38:26;;;;;;;15.52;10.32;;;;;;;41.76;29.97;98834.09;5069784;28;20195;-60
2022/08/20 08:40:56;;;;;;;11.43;10.50;;;;;;;42.15;28.88;98833.75;5070537;28;20196;-61
2022/08/20 08:43:27;;;;;;;11.32;10.30;;;;;;;41.94;29.46;98835.53;5070246;28;20199;-57
2022/08/20 08:46:00;;;;;;;11.70;10.50;;;;;;;41.28;29.73;98819.53;5069558;28;20606;-57
2022/08/20 08:48:33;;;;;;;11.32;10.30;;;;;;;41.32;29.67;98825.25;5069404;28;20256;-57
2022/08/20 08:51:02;;;;;;;13.32;10.25;;;;;;;41.84;28.86;98824.56;5070312;28;20203;-57
2022/08/20 08:53:42;;;;;;;12.07;9.65;;;;;;;40.96;30.39;98821.41;5070160;28;20624;-58
2022/08/20 08:56:09;;;;;;;10.70;9.57;;;;;;;40.69;30.51;98815.09;5070480;28;20197;-58
2022/08/20 08:58:38;;;;;;;10.98;9.95;;;;;;;40.11;31.37;98811.94;5069844;28;20191;-59
2022/08/20 09:01:11;;;;;;;13.65;9.43;;;;;;;40.04;31.70;98799.63;5070273;28;20249;-57
2022/08/20 09:03:42;;;;;;;9.75;9.15;;;;;;;39.62;32.40;98810.16;5069709;28;20204;-58
2022/08/20 09:06:13;;;;;;;10.85;9.75;;;;;;;39.77;32.10;98803.03;5070380;28;20229;-60
2022/08/20 09:08:46;;;;;;;12.50;10.05;;;;;;;39.37;32.55;98800.53;5069506;28;20198;-59
2022/08/20 09:11:14;;;;;;;13.48;9.32;;;;;;;39.15;32.10;98789.59;5067500;28;20191;-59
2022/08/20 09:13:43;;;;;;;16.85;11.63;;;;;;;38.81;33.12;98791.41;5063057;28;20200;-59
2022/08/20 09:16:10;;;;;;;12.82;10.02;;;;;;;38.75;33.39;98781.53;5051323;28;20230;-60
2022/08/20 09:18:37;;;;;;;10.98;9.98;;;;;;;39.03;32.45;98777.97;5049898;28;20196;-60
2022/08/20 09:21:05;;;;;;;10.95;9.73;;;;;;;39.78;31.72;98788.38;5060380;28;20201;-60
2022/08/20 09:23:32;;;;;;;10.35;9.50;;;;;;;39.55;31.79;98778.56;5066432;28;20290;-59
2022/08/20 09:25:59;;;;;;;11.73;9.80;;;;;;;39.75;32.12;98772.56;5068964;28;20217;-60
2022/08/20 09:28:27;;;;;;;12.00;9.80;;;;;;;40.30;30.90;98757.31;5069369;28;20683;-60
2022/08/20 09:30:55;;;;;;;10.30;9.30;;;;;;;40.20;31.15;98780.53;5068837;28;20635;-61
2022/08/20 09:33:22;;;;;;;10.75;9.52;;;;;;;39.68;31.61;98779.28;5069435;28;20191;-60
2022/08/20 09:35:49;;;;;;;10.27;9.27;;;;;;;39.98;31.36;98771.56;5066197;28;20215;-60
2022/08/20 09:38:16;;;;;;;10.65;9.40;;;;;;;40.41;30.62;98764.50;5069834;28;20217;-56
2022/08/20 09:40:44;;;;;;;10.02;9.13;;;;;;;40.74;30.23;98771.66;5069668;28;20655;-60
2022/08/20 09:43:11;;;;;;;12.55;9.35;;;;;;;40.92;30.22;98772.09;5069217;28;20249;-60
2022/08/20 09:45:38;;;;;;;10.93;9.32;;;;;;;40.91;29.53;98759.56;5069305;28;20227;-60
2022/08/20 09:48:07;;;;;;;10.63;9.52;;;;;;;40.49;30.53;98753.16;5069459;28;20278;-60
2022/08/20 09:50:36;;;;;;;10.57;9.68;;;;;;;40.49;30.56;98743.09;5069290;28;20195;-60
2022/08/20 09:53:05;;;;;;;12.20;9.80;;;;;;;41.25;29.39;98748.41;5069856;28;20681;-60
2022/08/20 09:55:35;;;;;;;15.40;9.50;;;;;;;40.88;29.96;98751.91;5069554;28;20210;-57
2022/08/20 09:58:09;;;;;;;10.00;9.18;;;;;;;41.53;29.24;98748.06;5069772;28;20199;-58
2022/08/20 10:00:36;;;;;;;10.77;9.65;;;;;;;41.69;29.32;98746.25;5069460;28;20199;-57
2022/08/20 10:03:03;;;;;;;10.35;9.48;;;;;;;42.14;28.56;98734.75;5069150;28;20221;-57
2022/08/20 10:05:31;;;;;;;10.48;9.68;;;;;;;41.95;28.35;98739.88;5069347;28;20211;-57
2022/08/20 10:07:58;;;;;;;10.60;9.52;;;;;;;41.44;29.14;98733.28;5069471;28;20199;-58
2022/08/20 10:10:26;;;;;;;11.18;9.43;;;;;;;41.39;29.34;98724.28;5070515;28;20199;-58
2022/08/20 10:12:52;;;;;;;10.75;9.68;;;;;;;42.14;28.57;98721.13;5073248;28;20723;-57
2022/08/20 10:15:19;;;;;;;11.18;9.50;;;;;;;42.01;28.50;98722.44;5073221;28;20201;-58
2022/08/20 10:17:46;;;;;;;10.45;9.68;;;;;;;42.34;28.68;98714.88;5073017;28;20230;-57
2022/08/20 10:20:14;;;;;;;12.05;9.73;;;;;;;42.24;28.70;98714.88;5073158;28;20231;-57
2022/08/20 10:22:42;;;;;;;11.45;10.23;;;;;;;41.61;28.74;98717.63;5073072;28;20257;-59
2022/08/20 10:25:10;;;;;;;10.07;9.25;;;;;;;41.12;30.07;98713.44;5072999;28;20206;-60
2022/08/20 10:27:38;;;;;;;14.70;9.90;;;;;;;40.60;30.93;98705.91;5072941;28;20238;-61
2022/08/20 10:30:07;;;;;;;11.30;10.35;;;;;;;39.51;32.02;98709.50;5072752;28;20198;-59
2022/08/20 10:32:34;;;;;;;11.10;10.35;;;;;;;38.82;33.31;98702.72;5072926;28;20290;-60
2022/08/20 10:35:01;;;;;;;9.85;9.02;;;;;;;37.96;34.73;98688.34;5072713;28;20231;-60
2022/08/20 10:37:28;;;;;;;11.38;10.38;;;;;;;37.73;34.62;98686.50;5072946;28;20278;-58
2022/08/20 10:39:56;;;;;;;11.38;10.40;;;;;;;37.44;35.64;98674.78;5072624;28;20210;-58
2022/08/20 10:42:23;;;;;;;11.77;10.65;;;;;;;37.31;35.93;98677.72;5072789;28;20286;-58
2022/08/20 10:44:50;;;;;;;11.60;10.50;;;;;;;37.17;36.42;98676.31;5072190;28;20606;-58
2022/08/20 10:47:21;;;;;;;12.52;11.25;;;;;;;36.99;36.39;98666.41;5071661;28;20226;-58
2022/08/20 10:49:50;;;;;;;10.65;9.85;;;;;;;36.67;37.12;98648.84;5071749;28;20690;-57
2022/08/20 10:52:17;;;;;;;10.38;9.63;;;;;;;36.77;37.21;98659.13;5070032;28;20188;-57
2022/08/20 10:54:44;;;;;;;10.88;8.80;;;;;;;36.72;36.29;98663.34;5070083;28;20215;-57
2022/08/20 10:57:17;;;;;;;9.85;8.95;;;;;;;36.61;35.72;98658.69;5069408;28;20192;-57
2022/08/20 10:59:47;;;;;;;9.02;8.15;;;;;;;36.34;35.89;98652.06;5070703;28;20202;-57
2022/08/20 11:02:14;;;;;;;9.82;8.50;;;;;;;36.23;35.96;98650.16;5068649;28;20200;-57
2022/08/20 11:04:41;;;;;;;9.13;8.20;;;;;;;35.98;35.71;98639.47;5071443;28;20221;-57
2022/08/20 11:07:14;;;;;;;9.70;8.77;;;;;;;35.82;35.77;98637.38;5071423;28;20227;-58
2022/08/20 11:09:41;;;;;;;9.20;8.50;;;;;;;35.93;36.04;98625.81;5069537;28;20571;-57
2022/08/20 11:12:09;;;;;;;12.02;8.30;;;;;;;36.15;35.35;98632.34;5072234;28;20191;-57
2022/08/20 11:14:38;;;;;;;9.45;8.65;;;;;;;36.09;35.51;98618.94;5072243;28;20196;-57
2022/08/20 11:17:06;;;;;;;14.65;8.63;;;;;;;36.13;34.62;98602.03;5072654;28;20227;-58
2022/08/20 11:19:38;;;;;;;9.13;7.60;;;;;;;36.18;34.81;98621.09;5072410;28;20617;-59
2022/08/20 11:22:05;;;;;;;8.43;7.78;;;;;;;36.35;34.50;98613.16;5070847;28;20222;-59
2022/08/20 11:24:32;;;;;;;10.48;8.57;;;;;;;36.24;34.43;98603.13;5072214;28;20200;-59
2022/08/20 11:26:58;;;;;;;10.75;8.75;;;;;;;36.18;34.78;98612.16;5072173;28;20703;-59
2022/08/20 11:29:25;;;;;;;10.73;7.97;;;;;;;36.16;34.87;98619.66;5072192;28;20215;-58
2022/08/20 11:31:54;;;;;;;9.32;8.48;;;;;;;36.06;34.50;98593.22;5072002;28;20200;-59
2022/08/20 11:34:21;;;;;;;9.88;8.98;;;;;;;36.20;34.69;98610.06;5071887;28;20243;-60